createdAt,value
2018-02-23T00:00:32.735Z,1016.86
2018-02-23T00:01:08.612Z,1016.88
2018-02-23T00:01:43.925Z,1016.83
2018-02-23T00:02:19.237Z,1016.82
2018-02-23T00:02:55.039Z,1016.82
2018-02-23T00:03:30.442Z,1016.82
2018-02-23T00:04:05.695Z,1016.80
2018-02-23T00:04:41.528Z,1016.81
2018-02-23T00:05:17.017Z,1016.82
2018-02-23T00:05:52.353Z,1016.81
2018-02-23T00:06:27.390Z,1016.84
2018-02-23T00:07:02.683Z,1016.84
2018-02-23T00:07:38.006Z,1016.82
2018-02-23T00:08:13.308Z,1016.84
2018-02-23T00:08:48.839Z,1016.84
2018-02-23T00:09:24.392Z,1016.83
2018-02-23T00:10:00.103Z,1016.80
2018-02-23T00:10:35.733Z,1016.77
2018-02-23T00:11:11.128Z,1016.76
2018-02-23T00:11:46.531Z,1016.78
2018-02-23T00:12:22.379Z,1016.81
2018-02-23T00:12:58.071Z,1016.80
2018-02-23T00:13:34.095Z,1016.83
2018-02-23T00:14:09.472Z,1016.81
2018-02-23T00:14:45.320Z,1016.84
2018-02-23T00:15:20.839Z,1016.83
2018-02-23T00:15:59.635Z,1016.80
2018-02-23T00:16:35.504Z,1016.81
2018-02-23T00:17:10.945Z,1016.82
2018-02-23T00:17:46.739Z,1016.79
2018-02-23T00:18:22.052Z,1016.81
2018-02-23T00:18:57.667Z,1016.81
2018-02-23T00:19:33.282Z,1016.79
2018-02-23T00:20:08.707Z,1016.83
2018-02-23T00:20:44.055Z,1016.82
2018-02-23T00:21:19.977Z,1016.84
2018-02-23T00:21:55.383Z,1016.76
2018-02-23T00:22:32.398Z,1016.78
2018-02-23T00:23:07.773Z,1016.77
2018-02-23T00:23:42.999Z,1016.76
2018-02-23T00:24:18.590Z,1016.78
2018-02-23T00:24:54.901Z,1016.73
2018-02-23T00:25:30.236Z,1016.69
2018-02-23T00:26:05.439Z,1016.68
2018-02-23T00:26:40.874Z,1016.73
2018-02-23T00:27:16.516Z,1016.73
2018-02-23T00:27:52.231Z,1016.69
2018-02-23T00:28:27.437Z,1016.71
2018-02-23T00:29:02.615Z,1016.71
2018-02-23T00:29:37.910Z,1016.73
2018-02-23T00:30:13.203Z,1016.70
2018-02-23T00:30:48.763Z,1016.72
2018-02-23T00:31:24.078Z,1016.73
2018-02-23T00:31:59.502Z,1016.75
2018-02-23T00:32:34.831Z,1016.69
2018-02-23T00:33:10.325Z,1016.73
2018-02-23T00:33:45.820Z,1016.72
2018-02-23T00:34:21.251Z,1016.73
2018-02-23T00:34:56.647Z,1016.74
2018-02-23T00:35:31.958Z,1016.75
2018-02-23T00:36:07.078Z,1016.74
2018-02-23T00:36:47.513Z,1016.78
2018-02-23T00:37:22.819Z,1016.80
2018-02-23T00:37:58.209Z,1016.78
2018-02-23T00:38:33.827Z,1016.81
2018-02-23T00:39:09.230Z,1016.81
2018-02-23T00:39:44.854Z,1016.78
2018-02-23T00:40:20.470Z,1016.79
2018-02-23T00:40:58.881Z,1016.82
2018-02-23T00:41:35.753Z,1016.80
2018-02-23T00:42:13.742Z,1016.81
2018-02-23T00:42:49.251Z,1016.81
2018-02-23T00:43:25.881Z,1016.80
2018-02-23T00:44:01.780Z,1016.83
2018-02-23T00:44:41.023Z,1016.76
2018-02-23T00:45:16.220Z,1016.79
2018-02-23T00:45:54.528Z,1016.81
2018-02-23T00:46:30.048Z,1016.78
2018-02-23T00:47:05.180Z,1016.79
2018-02-23T00:47:42.517Z,1016.78
2018-02-23T00:48:18.714Z,1016.77
2018-02-23T00:48:57.235Z,1016.77
2018-02-23T00:49:34.070Z,1016.77
2018-02-23T00:50:09.259Z,1016.81
2018-02-23T00:50:46.078Z,1016.84
2018-02-23T00:51:21.992Z,1016.80
2018-02-23T00:51:57.513Z,1016.77
2018-02-23T00:52:33.255Z,1016.78
2018-02-23T00:53:10.190Z,1016.72
2018-02-23T00:53:45.644Z,1016.76
2018-02-23T00:54:20.967Z,1016.79
2018-02-23T00:54:56.370Z,1016.80
2018-02-23T00:55:31.690Z,1016.79
2018-02-23T00:56:07.124Z,1016.79
2018-02-23T00:56:42.426Z,1016.79
2018-02-23T00:57:18.021Z,1016.81
2018-02-23T00:57:53.925Z,1016.78
2018-02-23T00:58:29.278Z,1016.82
2018-02-23T00:59:04.667Z,1016.78
2018-02-23T00:59:40.075Z,1016.74
2018-02-23T01:00:15.509Z,1016.70
2018-02-23T01:00:52.660Z,1016.72
2018-02-23T01:01:28.963Z,1016.73
2018-02-23T01:02:04.451Z,1016.73
2018-02-23T01:02:39.795Z,1016.72
2018-02-23T01:03:15.304Z,1016.72
2018-02-23T01:03:51.021Z,1016.72
2018-02-23T01:04:26.555Z,1016.74
2018-02-23T01:05:02.143Z,1016.73
2018-02-23T01:05:37.997Z,1016.75
2018-02-23T01:06:13.010Z,1016.77
2018-02-23T01:06:49.985Z,1016.74
2018-02-23T01:07:27.736Z,1016.76
2018-02-23T01:08:03.029Z,1016.74
2018-02-23T01:08:38.685Z,1016.74
2018-02-23T01:09:14.172Z,1016.79
2018-02-23T01:09:49.411Z,1016.74
2018-02-23T01:10:25.047Z,1016.78
2018-02-23T01:11:00.778Z,1016.81
2018-02-23T01:11:35.806Z,1016.78
2018-02-23T01:12:11.097Z,1016.74
2018-02-23T01:12:46.423Z,1016.74
2018-02-23T01:13:21.842Z,1016.73
2018-02-23T01:13:57.381Z,1016.74
2018-02-23T01:14:32.715Z,1016.74
2018-02-23T01:15:08.110Z,1016.75
2018-02-23T01:15:43.842Z,1016.73
2018-02-23T01:16:19.047Z,1016.74
2018-02-23T01:16:54.454Z,1016.77
2018-02-23T01:17:29.863Z,1016.75
2018-02-23T01:18:05.470Z,1016.75
2018-02-23T01:18:40.584Z,1016.71
2018-02-23T01:19:16.200Z,1016.76
2018-02-23T01:19:51.420Z,1016.69
2018-02-23T01:20:26.847Z,1016.73
2018-02-23T01:21:02.050Z,1016.72
2018-02-23T01:21:37.268Z,1016.70
2018-02-23T01:22:12.565Z,1016.66
2018-02-23T01:22:47.692Z,1016.68
2018-02-23T01:23:22.921Z,1016.69
2018-02-23T01:23:58.143Z,1016.70
2018-02-23T01:24:33.497Z,1016.71
2018-02-23T01:25:09.192Z,1016.71
2018-02-23T01:25:45.125Z,1016.71
2018-02-23T01:26:20.448Z,1016.72
2018-02-23T01:26:55.806Z,1016.69
2018-02-23T01:27:31.075Z,1016.69
2018-02-23T01:28:06.471Z,1016.69
2018-02-23T01:28:41.969Z,1016.66
2018-02-23T01:29:17.164Z,1016.68
2018-02-23T01:29:52.464Z,1016.68
2018-02-23T01:30:27.789Z,1016.72
2018-02-23T01:31:02.989Z,1016.70
2018-02-23T01:31:38.423Z,1016.69
2018-02-23T01:32:13.801Z,1016.70
2018-02-23T01:32:49.011Z,1016.67
2018-02-23T01:33:24.450Z,1016.67
2018-02-23T01:33:59.844Z,1016.66
2018-02-23T01:34:35.502Z,1016.61
2018-02-23T01:35:11.011Z,1016.61
2018-02-23T01:35:46.392Z,1016.66
2018-02-23T01:36:21.888Z,1016.61
2018-02-23T01:36:57.393Z,1016.56
2018-02-23T01:37:32.707Z,1016.61
2018-02-23T01:38:07.905Z,1016.61
2018-02-23T01:38:43.350Z,1016.62
2018-02-23T01:39:18.582Z,1016.60
2018-02-23T01:39:53.989Z,1016.59
2018-02-23T01:40:29.230Z,1016.55
2018-02-23T01:41:04.533Z,1016.55
2018-02-23T01:41:40.285Z,1016.55
2018-02-23T01:42:15.989Z,1016.52
2018-02-23T01:42:51.329Z,1016.53
2018-02-23T01:43:26.969Z,1016.55
2018-02-23T01:44:02.193Z,1016.51
2018-02-23T01:44:38.109Z,1016.54
2018-02-23T01:45:13.609Z,1016.51
2018-02-23T01:45:53.534Z,1016.52
2018-02-23T01:46:29.280Z,1016.49
2018-02-23T01:47:04.499Z,1016.56
2018-02-23T01:47:40.317Z,1016.58
2018-02-23T01:48:15.540Z,1016.57
2018-02-23T01:48:50.784Z,1016.55
2018-02-23T01:49:26.617Z,1016.55
2018-02-23T01:50:01.929Z,1016.55
2018-02-23T01:50:38.236Z,1016.57
2018-02-23T01:51:13.367Z,1016.56
2018-02-23T01:51:48.681Z,1016.54
2018-02-23T01:52:24.029Z,1016.54
2018-02-23T01:52:59.344Z,1016.51
2018-02-23T01:53:34.875Z,1016.54
2018-02-23T01:54:10.187Z,1016.52
2018-02-23T01:54:45.983Z,1016.50
2018-02-23T01:55:21.087Z,1016.50
2018-02-23T01:55:56.404Z,1016.51
2018-02-23T01:56:31.871Z,1016.50
2018-02-23T01:57:06.977Z,1016.50
2018-02-23T01:57:42.521Z,1016.49
2018-02-23T01:58:17.846Z,1016.47
2018-02-23T01:58:53.269Z,1016.46
2018-02-23T01:59:28.583Z,1016.50
2018-02-23T02:00:04.206Z,1016.43
2018-02-23T02:00:41.134Z,1016.46
2018-02-23T02:01:16.536Z,1016.44
2018-02-23T02:01:51.856Z,1016.41
2018-02-23T02:02:27.089Z,1016.41
2018-02-23T02:03:02.484Z,1016.38
2018-02-23T02:03:37.997Z,1016.43
2018-02-23T02:04:13.679Z,1016.40
2018-02-23T02:04:48.999Z,1016.41
2018-02-23T02:05:24.541Z,1016.36
2018-02-23T02:06:00.131Z,1016.39
2018-02-23T02:06:35.719Z,1016.38
2018-02-23T02:07:11.324Z,1016.35
2018-02-23T02:07:47.139Z,1016.35
2018-02-23T02:08:22.643Z,1016.31
2018-02-23T02:08:58.146Z,1016.30
2018-02-23T02:09:33.451Z,1016.31
2018-02-23T02:10:08.971Z,1016.33
2018-02-23T02:10:45.837Z,1016.30
2018-02-23T02:11:21.608Z,1016.29
2018-02-23T02:11:56.710Z,1016.31
2018-02-23T02:12:31.834Z,1016.30
2018-02-23T02:13:07.235Z,1016.33
2018-02-23T02:13:42.852Z,1016.34
2018-02-23T02:14:18.954Z,1016.29
2018-02-23T02:14:54.469Z,1016.27
2018-02-23T02:15:29.866Z,1016.30
2018-02-23T02:16:07.361Z,1016.28
2018-02-23T02:16:45.901Z,1016.26
2018-02-23T02:17:21.326Z,1016.32
2018-02-23T02:17:56.813Z,1016.25
2018-02-23T02:18:34.665Z,1016.29
2018-02-23T02:19:12.060Z,1016.25
2018-02-23T02:19:47.578Z,1016.22
2018-02-23T02:20:28.883Z,1016.25
2018-02-23T02:21:04.390Z,1016.29
2018-02-23T02:21:40.359Z,1016.30
2018-02-23T02:22:18.559Z,1016.29
2018-02-23T02:22:53.970Z,1016.22
2018-02-23T02:23:29.411Z,1016.24
2018-02-23T02:24:05.046Z,1016.29
2018-02-23T02:24:44.066Z,1016.25
2018-02-23T02:25:19.582Z,1016.26
2018-02-23T02:25:55.177Z,1016.26
2018-02-23T02:26:30.695Z,1016.27
2018-02-23T02:27:05.999Z,1016.25
2018-02-23T02:27:47.235Z,1016.25
2018-02-23T02:28:25.755Z,1016.24
2018-02-23T02:29:01.019Z,1016.21
2018-02-23T02:29:36.623Z,1016.21
2018-02-23T02:30:12.324Z,1016.21
2018-02-23T02:30:48.294Z,1016.19
2018-02-23T02:31:23.728Z,1016.17
2018-02-23T02:31:59.171Z,1016.19
2018-02-23T02:32:34.574Z,1016.18
2018-02-23T02:33:10.063Z,1016.19
2018-02-23T02:33:52.206Z,1016.13
2018-02-23T02:34:28.458Z,1016.17
2018-02-23T02:35:03.782Z,1016.14
2018-02-23T02:35:41.308Z,1016.16
2018-02-23T02:36:16.800Z,1016.16
2018-02-23T02:36:52.672Z,1016.17
2018-02-23T02:37:28.091Z,1016.14
2018-02-23T02:38:03.184Z,1016.14
2018-02-23T02:38:38.612Z,1016.15
2018-02-23T02:39:14.222Z,1016.12
2018-02-23T02:39:52.964Z,1016.15
2018-02-23T02:40:28.283Z,1016.15
2018-02-23T02:41:03.659Z,1016.16
2018-02-23T02:41:38.959Z,1016.14
2018-02-23T02:42:14.490Z,1016.15
2018-02-23T02:42:49.814Z,1016.18
2018-02-23T02:43:25.137Z,1016.16
2018-02-23T02:44:00.340Z,1016.21
2018-02-23T02:44:35.665Z,1016.19
2018-02-23T02:45:11.171Z,1016.19
2018-02-23T02:45:47.733Z,1016.26
2018-02-23T02:46:23.390Z,1016.25
2018-02-23T02:46:58.810Z,1016.24
2018-02-23T02:47:34.223Z,1016.23
2018-02-23T02:48:09.909Z,1016.17
2018-02-23T02:48:45.229Z,1016.20
2018-02-23T02:49:20.562Z,1016.21
2018-02-23T02:49:58.457Z,1016.19
2018-02-23T02:50:34.176Z,1016.22
2018-02-23T02:51:11.684Z,1016.19
2018-02-23T02:51:47.205Z,1016.19
2018-02-23T02:52:22.588Z,1016.20
2018-02-23T02:52:58.501Z,1016.20
2018-02-23T02:53:33.966Z,1016.20
2018-02-23T02:54:09.158Z,1016.18
2018-02-23T02:54:44.510Z,1016.20
2018-02-23T02:55:21.760Z,1016.20
2018-02-23T02:55:58.366Z,1016.24
2018-02-23T02:56:34.305Z,1016.20
2018-02-23T02:57:09.547Z,1016.21
2018-02-23T02:57:45.260Z,1016.23
2018-02-23T02:58:20.497Z,1016.20
2018-02-23T02:58:56.583Z,1016.22
2018-02-23T02:59:32.110Z,1016.26
2018-02-23T03:00:09.083Z,1016.24
2018-02-23T03:00:45.321Z,1016.22
2018-02-23T03:01:20.770Z,1016.20
2018-02-23T03:01:56.072Z,1016.20
2018-02-23T03:02:31.352Z,1016.16
2018-02-23T03:03:06.859Z,1016.16
2018-02-23T03:03:42.449Z,1016.15
2018-02-23T03:04:17.922Z,1016.12
2018-02-23T03:04:57.155Z,1016.14
2018-02-23T03:05:32.661Z,1016.12
2018-02-23T03:06:07.969Z,1016.13
2018-02-23T03:06:43.397Z,1016.12
2018-02-23T03:07:19.144Z,1016.15
2018-02-23T03:07:54.533Z,1016.12
2018-02-23T03:08:29.858Z,1016.10
2018-02-23T03:09:05.261Z,1016.10
2018-02-23T03:09:40.998Z,1016.10
2018-02-23T03:10:16.270Z,1016.11
2018-02-23T03:10:52.079Z,1016.09
2018-02-23T03:11:27.380Z,1016.09
2018-02-23T03:12:02.864Z,1016.08
2018-02-23T03:12:38.716Z,1016.10
2018-02-23T03:13:14.244Z,1016.10
2018-02-23T03:13:49.559Z,1016.06
2018-02-23T03:14:24.926Z,1016.08
2018-02-23T03:15:00.290Z,1016.11
2018-02-23T03:15:35.795Z,1016.11
2018-02-23T03:16:11.224Z,1016.13
2018-02-23T03:16:46.642Z,1016.07
2018-02-23T03:17:22.101Z,1016.11
2018-02-23T03:17:57.492Z,1016.11
2018-02-23T03:18:32.608Z,1016.12
2018-02-23T03:19:07.900Z,1016.12
2018-02-23T03:19:43.125Z,1016.13
2018-02-23T03:20:18.351Z,1016.10
2018-02-23T03:20:53.546Z,1016.10
2018-02-23T03:21:28.803Z,1016.09
2018-02-23T03:22:04.320Z,1016.07
2018-02-23T03:22:39.679Z,1016.12
2018-02-23T03:23:15.068Z,1016.07
2018-02-23T03:23:50.582Z,1016.10
2018-02-23T03:24:26.102Z,1016.09
2018-02-23T03:25:01.681Z,1016.10
2018-02-23T03:25:38.641Z,1016.10
2018-02-23T03:26:14.037Z,1016.13
2018-02-23T03:26:49.592Z,1016.13
2018-02-23T03:27:24.895Z,1016.14
2018-02-23T03:28:00.491Z,1016.22
2018-02-23T03:28:35.702Z,1016.20
2018-02-23T03:29:11.074Z,1016.19
2018-02-23T03:29:46.210Z,1016.22
2018-02-23T03:30:21.463Z,1016.21
2018-02-23T03:31:00.050Z,1016.21
2018-02-23T03:31:36.178Z,1016.22
2018-02-23T03:32:11.354Z,1016.24
2018-02-23T03:32:46.911Z,1016.27
2018-02-23T03:33:22.222Z,1016.22
2018-02-23T03:33:57.594Z,1016.17
2018-02-23T03:34:32.901Z,1016.18
2018-02-23T03:35:08.556Z,1016.20
2018-02-23T03:35:43.857Z,1016.20
2018-02-23T03:36:19.386Z,1016.18
2018-02-23T03:36:55.041Z,1016.22
2018-02-23T03:37:30.687Z,1016.21
2018-02-23T03:38:05.906Z,1016.22
2018-02-23T03:38:41.169Z,1016.22
2018-02-23T03:39:16.285Z,1016.23
2018-02-23T03:39:51.630Z,1016.21
2018-02-23T03:40:26.990Z,1016.20
2018-02-23T03:41:03.081Z,1016.18
2018-02-23T03:41:38.609Z,1016.22
2018-02-23T03:42:13.827Z,1016.27
2018-02-23T03:42:49.352Z,1016.25
2018-02-23T03:43:24.572Z,1016.21
2018-02-23T03:43:59.886Z,1016.21
2018-02-23T03:44:35.192Z,1016.23
2018-02-23T03:45:10.391Z,1016.23
2018-02-23T03:45:45.695Z,1016.24
2018-02-23T03:46:21.304Z,1016.21
2018-02-23T03:46:56.902Z,1016.24
2018-02-23T03:47:32.388Z,1016.21
2018-02-23T03:48:08.003Z,1016.21
2018-02-23T03:48:44.288Z,1016.17
2018-02-23T03:49:19.521Z,1016.19
2018-02-23T03:49:54.933Z,1016.19
2018-02-23T03:50:30.344Z,1016.21
2018-02-23T03:51:05.444Z,1016.20
2018-02-23T03:51:40.870Z,1016.18
2018-02-23T03:52:16.175Z,1016.21
2018-02-23T03:52:51.836Z,1016.20
2018-02-23T03:53:27.166Z,1016.20
2018-02-23T03:54:02.578Z,1016.20
2018-02-23T03:54:37.893Z,1016.19
2018-02-23T03:55:13.608Z,1016.16
2018-02-23T03:55:48.982Z,1016.17
2018-02-23T03:56:24.108Z,1016.18
2018-02-23T03:56:59.491Z,1016.15
2018-02-23T03:57:34.914Z,1016.17
2018-02-23T03:58:10.428Z,1016.18
2018-02-23T03:58:46.373Z,1016.16
2018-02-23T03:59:21.681Z,1016.15
2018-02-23T03:59:56.786Z,1016.14
2018-02-23T04:00:32.329Z,1016.16
2018-02-23T04:01:07.812Z,1016.13
2018-02-23T04:01:43.035Z,1016.14
2018-02-23T04:02:18.835Z,1016.14
2018-02-23T04:02:53.973Z,1016.13
2018-02-23T04:03:29.371Z,1016.14
2018-02-23T04:04:04.775Z,1016.13
2018-02-23T04:04:40.104Z,1016.15
2018-02-23T04:05:15.997Z,1016.15
2018-02-23T04:05:51.389Z,1016.17
2018-02-23T04:06:26.713Z,1016.13
2018-02-23T04:07:02.005Z,1016.15
2018-02-23T04:07:37.217Z,1016.16
2018-02-23T04:08:12.544Z,1016.16
2018-02-23T04:08:47.967Z,1016.15
2018-02-23T04:09:23.615Z,1016.13
2018-02-23T04:09:58.727Z,1016.14
2018-02-23T04:10:34.048Z,1016.12
2018-02-23T04:11:09.626Z,1016.18
2018-02-23T04:11:44.848Z,1016.17
2018-02-23T04:12:20.249Z,1016.16
2018-02-23T04:12:56.091Z,1016.11
2018-02-23T04:13:31.502Z,1016.15
2018-02-23T04:14:06.591Z,1016.13
2018-02-23T04:14:41.811Z,1016.10
2018-02-23T04:15:17.327Z,1016.13
2018-02-23T04:15:52.753Z,1016.11
2018-02-23T04:16:28.269Z,1016.09
2018-02-23T04:17:03.465Z,1016.11
2018-02-23T04:17:38.897Z,1016.15
2018-02-23T04:18:14.221Z,1016.13
2018-02-23T04:18:49.442Z,1016.18
2018-02-23T04:19:24.862Z,1016.12
2018-02-23T04:20:00.550Z,1016.18
2018-02-23T04:20:35.860Z,1016.14
2018-02-23T04:21:10.962Z,1016.19
2018-02-23T04:21:46.185Z,1016.17
2018-02-23T04:22:21.902Z,1016.18
2018-02-23T04:22:57.115Z,1016.21
2018-02-23T04:23:32.564Z,1016.15
2018-02-23T04:24:08.091Z,1016.17
2018-02-23T04:24:43.530Z,1016.15
2018-02-23T04:25:20.164Z,1016.13
2018-02-23T04:25:56.652Z,1016.17
2018-02-23T04:26:32.388Z,1016.18
2018-02-23T04:27:07.773Z,1016.18
2018-02-23T04:27:43.103Z,1016.21
2018-02-23T04:28:18.319Z,1016.15
2018-02-23T04:28:53.644Z,1016.17
2018-02-23T04:29:29.170Z,1016.21
2018-02-23T04:30:04.463Z,1016.21
2018-02-23T04:30:41.008Z,1016.18
2018-02-23T04:31:16.200Z,1016.22
2018-02-23T04:31:51.329Z,1016.23
2018-02-23T04:32:26.648Z,1016.20
2018-02-23T04:33:01.862Z,1016.25
2018-02-23T04:33:37.084Z,1016.26
2018-02-23T04:34:12.484Z,1016.28
2018-02-23T04:34:47.926Z,1016.23
2018-02-23T04:35:22.932Z,1016.29
2018-02-23T04:35:58.132Z,1016.24
2018-02-23T04:36:33.470Z,1016.29
2018-02-23T04:37:08.846Z,1016.31
2018-02-23T04:37:44.095Z,1016.25
2018-02-23T04:38:19.609Z,1016.30
2018-02-23T04:38:54.712Z,1016.29
2018-02-23T04:39:29.934Z,1016.30
2018-02-23T04:40:05.278Z,1016.26
2018-02-23T04:40:42.088Z,1016.27
2018-02-23T04:41:17.307Z,1016.30
2018-02-23T04:41:52.571Z,1016.28
2018-02-23T04:42:27.898Z,1016.34
2018-02-23T04:43:03.390Z,1016.31
2018-02-23T04:43:38.725Z,1016.37
2018-02-23T04:44:14.004Z,1016.33
2018-02-23T04:44:49.121Z,1016.36
2018-02-23T04:45:24.545Z,1016.34
2018-02-23T04:46:00.044Z,1016.30
2018-02-23T04:46:35.536Z,1016.35
2018-02-23T04:47:10.751Z,1016.37
2018-02-23T04:47:46.405Z,1016.34
2018-02-23T04:48:21.948Z,1016.33
2018-02-23T04:48:57.222Z,1016.33
2018-02-23T04:49:32.667Z,1016.37
2018-02-23T04:50:07.970Z,1016.38
2018-02-23T04:50:44.665Z,1016.38
2018-02-23T04:51:20.004Z,1016.37
2018-02-23T04:51:55.209Z,1016.37
2018-02-23T04:52:30.314Z,1016.38
2018-02-23T04:53:05.592Z,1016.32
2018-02-23T04:53:41.027Z,1016.34
2018-02-23T04:54:16.311Z,1016.39
2018-02-23T04:54:51.520Z,1016.36
2018-02-23T04:55:26.634Z,1016.34
2018-02-23T04:56:03.435Z,1016.35
2018-02-23T04:56:38.999Z,1016.34
2018-02-23T04:57:14.412Z,1016.33
2018-02-23T04:57:49.936Z,1016.32
2018-02-23T04:58:25.188Z,1016.35
2018-02-23T04:59:00.799Z,1016.32
2018-02-23T04:59:36.107Z,1016.32
2018-02-23T05:00:11.782Z,1016.33
2018-02-23T05:00:48.922Z,1016.36
2018-02-23T05:01:24.471Z,1016.29
2018-02-23T05:01:59.760Z,1016.32
2018-02-23T05:02:35.189Z,1016.28
2018-02-23T05:03:10.352Z,1016.37
2018-02-23T05:03:45.514Z,1016.35
2018-02-23T05:04:21.235Z,1016.33
2018-02-23T05:04:56.342Z,1016.36
2018-02-23T05:05:31.570Z,1016.34
2018-02-23T05:06:06.870Z,1016.34
2018-02-23T05:06:42.291Z,1016.33
2018-02-23T05:07:17.581Z,1016.32
2018-02-23T05:07:52.941Z,1016.34
2018-02-23T05:08:28.306Z,1016.35
2018-02-23T05:09:03.431Z,1016.31
2018-02-23T05:09:38.759Z,1016.31
2018-02-23T05:10:14.183Z,1016.38
2018-02-23T05:10:51.261Z,1016.36
2018-02-23T05:11:26.874Z,1016.35
2018-02-23T05:12:02.172Z,1016.37
2018-02-23T05:12:37.525Z,1016.35
2018-02-23T05:13:13.128Z,1016.32
2018-02-23T05:13:48.414Z,1016.35
2018-02-23T05:14:23.620Z,1016.37
2018-02-23T05:14:58.950Z,1016.29
2018-02-23T05:15:34.275Z,1016.38
2018-02-23T05:16:09.783Z,1016.37
2018-02-23T05:16:45.213Z,1016.38
2018-02-23T05:17:20.736Z,1016.33
2018-02-23T05:17:56.329Z,1016.35
2018-02-23T05:18:31.729Z,1016.35
2018-02-23T05:19:07.235Z,1016.38
2018-02-23T05:19:42.775Z,1016.38
2018-02-23T05:20:18.083Z,1016.42
2018-02-23T05:20:53.401Z,1016.35
2018-02-23T05:21:28.726Z,1016.38
2018-02-23T05:22:03.910Z,1016.40
2018-02-23T05:22:39.220Z,1016.39
2018-02-23T05:23:14.597Z,1016.45
2018-02-23T05:23:49.938Z,1016.41
2018-02-23T05:24:25.377Z,1016.40
2018-02-23T05:25:00.772Z,1016.38
2018-02-23T05:25:36.481Z,1016.40
2018-02-23T05:26:11.996Z,1016.38
2018-02-23T05:26:47.513Z,1016.37
2018-02-23T05:27:22.725Z,1016.44
2018-02-23T05:27:58.224Z,1016.39
2018-02-23T05:28:33.655Z,1016.42
2018-02-23T05:29:09.005Z,1016.42
2018-02-23T05:29:44.378Z,1016.42
2018-02-23T05:30:19.441Z,1016.41
2018-02-23T05:30:55.903Z,1016.39
2018-02-23T05:31:31.238Z,1016.37
2018-02-23T05:32:06.550Z,1016.38
2018-02-23T05:32:44.300Z,1016.41
2018-02-23T05:33:19.641Z,1016.44
2018-02-23T05:33:54.994Z,1016.45
2018-02-23T05:34:30.698Z,1016.43
2018-02-23T05:35:06.293Z,1016.47
2018-02-23T05:35:41.600Z,1016.43
2018-02-23T05:36:17.203Z,1016.43
2018-02-23T05:36:52.516Z,1016.44
2018-02-23T05:37:27.962Z,1016.46
2018-02-23T05:38:03.244Z,1016.42
2018-02-23T05:38:38.356Z,1016.42
2018-02-23T05:39:13.561Z,1016.47
2018-02-23T05:39:49.228Z,1016.44
2018-02-23T05:40:24.737Z,1016.42
2018-02-23T05:41:00.034Z,1016.39
2018-02-23T05:41:35.650Z,1016.42
2018-02-23T05:42:11.037Z,1016.38
2018-02-23T05:42:46.357Z,1016.38
2018-02-23T05:43:21.772Z,1016.36
2018-02-23T05:43:57.585Z,1016.41
2018-02-23T05:44:32.913Z,1016.35
2018-02-23T05:45:08.020Z,1016.44
2018-02-23T05:45:43.879Z,1016.40
2018-02-23T05:46:19.314Z,1016.38
2018-02-23T05:46:54.404Z,1016.41
2018-02-23T05:47:29.925Z,1016.43
2018-02-23T05:48:05.329Z,1016.41
2018-02-23T05:48:40.759Z,1016.42
2018-02-23T05:49:15.965Z,1016.41
2018-02-23T05:49:51.277Z,1016.40
2018-02-23T05:50:26.397Z,1016.40
2018-02-23T05:51:01.871Z,1016.43
2018-02-23T05:51:36.986Z,1016.41
2018-02-23T05:52:12.184Z,1016.37
2018-02-23T05:52:47.586Z,1016.43
2018-02-23T05:53:23.015Z,1016.45
2018-02-23T05:53:58.543Z,1016.47
2018-02-23T05:54:33.644Z,1016.50
2018-02-23T05:55:09.242Z,1016.45
2018-02-23T05:55:44.343Z,1016.42
2018-02-23T05:56:19.764Z,1016.43
2018-02-23T05:56:55.190Z,1016.45
2018-02-23T05:57:30.622Z,1016.41
2018-02-23T05:58:05.833Z,1016.42
2018-02-23T05:58:41.259Z,1016.43
2018-02-23T05:59:16.887Z,1016.44
2018-02-23T05:59:52.619Z,1016.46
2018-02-23T06:00:28.226Z,1016.46
2018-02-23T06:01:03.708Z,1016.47
2018-02-23T06:01:39.131Z,1016.49
2018-02-23T06:02:14.523Z,1016.51
2018-02-23T06:02:50.070Z,1016.51
2018-02-23T06:03:25.500Z,1016.49
2018-02-23T06:04:00.815Z,1016.54
2018-02-23T06:04:36.183Z,1016.53
2018-02-23T06:05:12.474Z,1016.59
2018-02-23T06:05:47.690Z,1016.56
2018-02-23T06:06:23.229Z,1016.56
2018-02-23T06:06:58.557Z,1016.57
2018-02-23T06:07:33.816Z,1016.59
2018-02-23T06:08:09.426Z,1016.57
2018-02-23T06:08:45.070Z,1016.59
2018-02-23T06:09:20.427Z,1016.60
2018-02-23T06:09:55.961Z,1016.56
2018-02-23T06:10:31.356Z,1016.57
2018-02-23T06:11:06.928Z,1016.58
2018-02-23T06:11:43.216Z,1016.62
2018-02-23T06:12:18.608Z,1016.60
2018-02-23T06:12:54.131Z,1016.62
2018-02-23T06:13:29.657Z,1016.62
2018-02-23T06:14:05.059Z,1016.60
2018-02-23T06:14:40.616Z,1016.62
2018-02-23T06:15:16.390Z,1016.66
2018-02-23T06:15:51.856Z,1016.62
2018-02-23T06:16:27.366Z,1016.65
2018-02-23T06:17:02.700Z,1016.69
2018-02-23T06:17:37.934Z,1016.65
2018-02-23T06:18:13.325Z,1016.64
2018-02-23T06:18:48.454Z,1016.72
2018-02-23T06:19:23.911Z,1016.69
2018-02-23T06:19:59.281Z,1016.68
2018-02-23T06:20:34.534Z,1016.67
2018-02-23T06:21:09.761Z,1016.72
2018-02-23T06:21:44.927Z,1016.71
2018-02-23T06:22:20.376Z,1016.71
2018-02-23T06:22:58.778Z,1016.68
2018-02-23T06:23:36.616Z,1016.73
2018-02-23T06:24:11.833Z,1016.73
2018-02-23T06:24:47.216Z,1016.74
2018-02-23T06:25:22.987Z,1016.75
2018-02-23T06:26:01.690Z,1016.75
2018-02-23T06:26:39.050Z,1016.70
2018-02-23T06:27:14.331Z,1016.69
2018-02-23T06:27:49.798Z,1016.72
2018-02-23T06:28:24.964Z,1016.75
2018-02-23T06:29:00.350Z,1016.71
2018-02-23T06:29:36.006Z,1016.72
2018-02-23T06:30:11.300Z,1016.78
2018-02-23T06:30:47.716Z,1016.72
2018-02-23T06:31:23.349Z,1016.76
2018-02-23T06:31:58.745Z,1016.73
2018-02-23T06:32:34.231Z,1016.77
2018-02-23T06:33:09.540Z,1016.76
2018-02-23T06:33:44.764Z,1016.76
2018-02-23T06:34:20.505Z,1016.75
2018-02-23T06:34:56.040Z,1016.78
2018-02-23T06:35:31.459Z,1016.77
2018-02-23T06:36:08.072Z,1016.81
2018-02-23T06:36:44.615Z,1016.78
2018-02-23T06:37:19.950Z,1016.78
2018-02-23T06:37:55.234Z,1016.79
2018-02-23T06:38:30.588Z,1016.78
2018-02-23T06:39:06.149Z,1016.79
2018-02-23T06:39:41.727Z,1016.79
2018-02-23T06:40:17.060Z,1016.82
2018-02-23T06:40:53.656Z,1016.82
2018-02-23T06:41:29.003Z,1016.83
2018-02-23T06:42:04.302Z,1016.79
2018-02-23T06:42:39.711Z,1016.85
2018-02-23T06:43:15.005Z,1016.85
2018-02-23T06:43:50.215Z,1016.83
2018-02-23T06:44:25.856Z,1016.84
2018-02-23T06:45:01.491Z,1016.88
2018-02-23T06:45:39.892Z,1016.86
2018-02-23T06:46:15.091Z,1016.89
2018-02-23T06:46:50.845Z,1016.92
2018-02-23T06:47:26.087Z,1016.94
2018-02-23T06:48:02.938Z,1016.95
2018-02-23T06:48:38.591Z,1016.93
2018-02-23T06:49:14.013Z,1016.94
2018-02-23T06:49:49.473Z,1016.95
2018-02-23T06:50:24.716Z,1016.96
2018-02-23T06:51:00.026Z,1016.96
2018-02-23T06:51:35.559Z,1016.96
2018-02-23T06:52:11.044Z,1016.93
2018-02-23T06:52:48.392Z,1016.96
2018-02-23T06:53:23.852Z,1016.99
2018-02-23T06:53:59.458Z,1016.94
2018-02-23T06:54:34.894Z,1017.01
2018-02-23T06:55:10.101Z,1017.01
2018-02-23T06:55:47.546Z,1017.00
2018-02-23T06:56:25.965Z,1017.02
2018-02-23T06:57:01.178Z,1017.01
2018-02-23T06:57:36.583Z,1017.03
2018-02-23T06:58:12.001Z,1017.02
2018-02-23T06:58:47.525Z,1017.02
2018-02-23T06:59:22.855Z,1017.03
2018-02-23T06:59:58.178Z,1017.04
2018-02-23T07:00:33.821Z,1017.01
2018-02-23T07:01:09.216Z,1017.01
2018-02-23T07:01:45.573Z,1017.08
2018-02-23T07:02:21.137Z,1017.09
2018-02-23T07:02:56.554Z,1017.06
2018-02-23T07:03:32.143Z,1017.07
2018-02-23T07:04:07.801Z,1017.07
2018-02-23T07:04:43.250Z,1017.06
2018-02-23T07:05:18.963Z,1017.11
2018-02-23T07:05:54.275Z,1017.12
2018-02-23T07:06:29.927Z,1017.11
2018-02-23T07:07:05.241Z,1017.11
2018-02-23T07:07:40.598Z,1017.09
2018-02-23T07:08:15.816Z,1017.12
2018-02-23T07:08:51.961Z,1017.13
2018-02-23T07:09:27.290Z,1017.14
2018-02-23T07:10:02.512Z,1017.15
2018-02-23T07:10:40.141Z,1017.16
2018-02-23T07:11:15.377Z,1017.10